Franklinton, Louisiana
Current Conditions -  °F | °C
As of 8:35 AM on Friday 31 Oct 2014 (Local Time) from KBXA Reporting Station
NA  
Wind Chill: 49°   Ceiling: NA
Heat Index: 49°   Visibility: 10mi
Dew Point: 44°   Wind: 0mph
Humidity: 83%   Direction: NA
Pressure: 30.07"   Gusts: NA
Location:  30.85°N, 90.15°W
Report Text: KBXA 311335Z AUTO 00000KT 10SM 10/07 A3007 RMK AO2 T00960068
Loading
Personal Weather Stations






























Interactive Weather Map
Tropical Storm Tracking
New forecast layout! Learn more

10-Day Weather Forecast

Advertisements
Track Severe Weather on mobile